City Of Cleveland — WDC2358 — position and weather

sailwx.info

Track history (hours):
 
Tides and Currents Weather Stations Pressure Air Temp Water Temp Dewpoint Dewpoint Depression Visibility Wind Speed Wind Dir Waves Ship Positions

City Of Cleveland

Owner: JANTRAN, INC., ROSEDALE, MS. More information available from US FCC via Universal Licensing System and Coast Guard Vessel Documentation Center.

Last reported at 2016-Dec-02 03:24 UTC. Time now 2016-Dec-05 16:33 UTC.
Position N 32°39' W 091°09'.

Length 42 m; draft 12.5 m.

Type: Towing. MMSI: 366991810.

Date/timePositionNaut miles runAvg speedWind from/ knotsBaromVisibWave heightAir tempDewpointWater temp
2016-Dec-02 03:24N 32°39' W 091°09'3 3.3
2016-Dec-02 02:33N 32°36' W 091°09'4 3.9
2016-Dec-02 01:33N 32°33' W 091°06'4 4.3
2016-Dec-02 00:33N 32°29' W 091°07'4 4.3
2016-Dec-01 23:33N 32°26' W 091°02'3 3.4
2016-Dec-01 22:33N 32°24' W 090°59'3 2.8
2016-Dec-01 21:33N 32°21' W 090°59'2 1.6
2016-Dec-01 20:33N 32°21' W 090°57'3 2.8
2016-Dec-01 19:33N 32°20' W 090°54'2 2.2
2016-Dec-01 18:33N 32°18' W 090°55'0 0.0
2016-Dec-01 17:33N 32°18' W 090°55'0 0.0
2016-Dec-01 16:33N 32°18' W 090°55'0 0.0
2016-Dec-01 15:33N 32°18' W 090°55'0 0.0
2016-Dec-01 14:33N 32°18' W 090°55'0 0.0
2016-Dec-01 13:33N 32°18' W 090°55'0 0.1
2016-Dec-01 12:33N 32°18' W 090°55'3 3.2
2016-Dec-01 11:33N 32°16' W 090°58'2 2.3
2016-Dec-01 10:33N 32°14' W 090°59'0 0.0
2016-Dec-01 09:33N 32°14' W 090°59'3 3.1
2016-Dec-01 08:33N 32°11' W 090°60'4 3.8
2016-Dec-01 07:33N 32°07' W 091°01'4 4.2
2016-Dec-01 06:33N 32°08' W 091°06'5 3.6
2016-Dec-01 05:15N 32°04' W 091°03'2 2.9
2016-Dec-01 04:33N 32°02' W 091°04'  
2016-Nov-25 22:19N 29°58' W 090°15'4 4.8
2016-Nov-25 21:32N 29°55' W 090°12'2 1.1
2016-Nov-25 19:33N 29°57' W 090°10'1 1.3
2016-Nov-25 18:33N 29°56' W 090°11'4 4.3
2016-Nov-25 17:33N 29°58' W 090°15'6 1.4
2016-Nov-25 13:30N 29°56' W 090°21'0 0.0
2016-Nov-25 12:33N 29°56' W 090°21'0 0.0
2016-Nov-25 10:33N 29°56' W 090°21'  
2016-Nov-22 13:33N 31°57' W 091°11'14 4.6
2016-Nov-22 10:33N 32°08' W 091°01'8 7.9
2016-Nov-22 09:33N 32°15' W 090°58'6 6.0
2016-Nov-22 08:33N 32°21' W 090°55'5 4.7
2016-Nov-22 07:33N 32°23' W 090°60'12 5.8
2016-Nov-22 05:33N 32°34' W 091°06'7 6.6
2016-Nov-22 04:33N 32°40' W 091°08'  
Track history (hours):
 
Tides and Currents Weather Stations Pressure Air Temp Water Temp Dewpoint Dewpoint Depression Visibility Wind Speed Wind Dir Waves Ship Positions

City Of Cleveland

Owner: JANTRAN, INC., ROSEDALE, MS. More information available from US FCC via Universal Licensing System and Coast Guard Vessel Documentation Center.

Last reported at 2016-Dec-02 03:24 UTC. Time now 2016-Dec-05 16:33 UTC.
Position N 32°39' W 091°09'.

Length 42 m; draft 12.5 m.

Type: Towing. MMSI: 366991810.

Date/timePositionNaut miles runAvg speedWind from/ knotsBaromVisibWave heightAir tempDewpointWater temp
2016-Dec-02 03:24N 32°39' W 091°09'3 3.3
2016-Dec-02 02:33N 32°36' W 091°09'4 3.9
2016-Dec-02 01:33N 32°33' W 091°06'4 4.3
2016-Dec-02 00:33N 32°29' W 091°07'4 4.3
2016-Dec-01 23:33N 32°26' W 091°02'3 3.4
2016-Dec-01 22:33N 32°24' W 090°59'3 2.8
2016-Dec-01 21:33N 32°21' W 090°59'2 1.6
2016-Dec-01 20:33N 32°21' W 090°57'3 2.8
2016-Dec-01 19:33N 32°20' W 090°54'2 2.2
2016-Dec-01 18:33N 32°18' W 090°55'0 0.0
2016-Dec-01 17:33N 32°18' W 090°55'0 0.0
2016-Dec-01 16:33N 32°18' W 090°55'0 0.0
2016-Dec-01 15:33N 32°18' W 090°55'0 0.0
2016-Dec-01 14:33N 32°18' W 090°55'0 0.0
2016-Dec-01 13:33N 32°18' W 090°55'0 0.1
2016-Dec-01 12:33N 32°18' W 090°55'3 3.2
2016-Dec-01 11:33N 32°16' W 090°58'2 2.3
2016-Dec-01 10:33N 32°14' W 090°59'0 0.0
2016-Dec-01 09:33N 32°14' W 090°59'3 3.1
2016-Dec-01 08:33N 32°11' W 090°60'4 3.8
2016-Dec-01 07:33N 32°07' W 091°01'4 4.2
2016-Dec-01 06:33N 32°08' W 091°06'5 3.6
2016-Dec-01 05:15N 32°04' W 091°03'2 2.9
2016-Dec-01 04:33N 32°02' W 091°04'  
2016-Nov-25 22:19N 29°58' W 090°15'4 4.8
2016-Nov-25 21:32N 29°55' W 090°12'2 1.1
2016-Nov-25 19:33N 29°57' W 090°10'1 1.3
2016-Nov-25 18:33N 29°56' W 090°11'4 4.3
2016-Nov-25 17:33N 29°58' W 090°15'6 1.4
2016-Nov-25 13:30N 29°56' W 090°21'0 0.0
2016-Nov-25 12:33N 29°56' W 090°21'0 0.0
2016-Nov-25 10:33N 29°56' W 090°21'  
2016-Nov-22 13:33N 31°57' W 091°11'14 4.6
2016-Nov-22 10:33N 32°08' W 091°01'8 7.9
2016-Nov-22 09:33N 32°15' W 090°58'6 6.0
2016-Nov-22 08:33N 32°21' W 090°55'5 4.7
2016-Nov-22 07:33N 32°23' W 090°60'12 5.8
2016-Nov-22 05:33N 32°34' W 091°06'7 6.6
2016-Nov-22 04:33N 32°40' W 091°08'  

Dump ship's entire track history